sensor_id;sensor_type;location;lat;lon;timestamp;P1;durP1;ratioP1;P2;durP2;ratioP2
46729;SDS011;32476;50.002;11.854;2022-08-25T00:01:57;29.57;;;19.63;;
46729;SDS011;32476;50.002;11.854;2022-08-25T00:04:28;27.33;;;19.10;;
46729;SDS011;32476;50.002;11.854;2022-08-25T00:06:55;24.77;;;18.90;;
46729;SDS011;32476;50.002;11.854;2022-08-25T00:09:23;32.60;;;20.27;;
46729;SDS011;32476;50.002;11.854;2022-08-25T00:11:53;28.30;;;19.40;;
46729;SDS011;32476;50.002;11.854;2022-08-25T00:14:21;30.60;;;20.27;;
46729;SDS011;32476;50.002;11.854;2022-08-25T00:16:50;27.17;;;19.20;;
46729;SDS011;32476;50.002;11.854;2022-08-25T00:19:20;29.53;;;20.87;;
46729;SDS011;32476;50.002;11.854;2022-08-25T00:21:50;32.80;;;19.73;;
46729;SDS011;32476;50.002;11.854;2022-08-25T00:24:19;27.13;;;20.10;;
46729;SDS011;32476;50.002;11.854;2022-08-25T00:26:47;29.80;;;20.03;;
46729;SDS011;32476;50.002;11.854;2022-08-25T00:29:15;27.03;;;19.80;;
46729;SDS011;32476;50.002;11.854;2022-08-25T00:31:44;29.37;;;19.93;;
46729;SDS011;32476;50.002;11.854;2022-08-25T00:34:12;26.83;;;19.97;;
46729;SDS011;32476;50.002;11.854;2022-08-25T00:36:48;26.73;;;19.80;;
46729;SDS011;32476;50.002;11.854;2022-08-25T00:39:16;28.10;;;19.13;;
46729;SDS011;32476;50.002;11.854;2022-08-25T00:41:45;37.07;;;20.17;;
46729;SDS011;32476;50.002;11.854;2022-08-25T00:44:15;39.67;;;20.40;;
46729;SDS011;32476;50.002;11.854;2022-08-25T00:46:47;31.87;;;20.03;;
46729;SDS011;32476;50.002;11.854;2022-08-25T00:49:19;27.27;;;19.47;;
46729;SDS011;32476;50.002;11.854;2022-08-25T00:52:19;55.33;;;20.03;;
46729;SDS011;32476;50.002;11.854;2022-08-25T00:55:17;26.73;;;19.17;;
46729;SDS011;32476;50.002;11.854;2022-08-25T00:57:56;25.30;;;17.70;;
46729;SDS011;32476;50.002;11.854;2022-08-25T01:00:42;31.03;;;18.53;;
46729;SDS011;32476;50.002;11.854;2022-08-25T01:03:14;27.80;;;20.03;;
46729;SDS011;32476;50.002;11.854;2022-08-25T01:05:45;29.70;;;19.37;;
46729;SDS011;32476;50.002;11.854;2022-08-25T01:08:12;31.90;;;20.63;;
46729;SDS011;32476;50.002;11.854;2022-08-25T01:10:41;25.53;;;18.03;;
46729;SDS011;32476;50.002;11.854;2022-08-25T01:13:18;25.93;;;18.60;;
46729;SDS011;32476;50.002;11.854;2022-08-25T01:15:51;24.80;;;19.17;;
46729;SDS011;32476;50.002;11.854;2022-08-25T01:18:24;31.30;;;19.13;;
46729;SDS011;32476;50.002;11.854;2022-08-25T01:20:56;31.57;;;19.50;;
46729;SDS011;32476;50.002;11.854;2022-08-25T01:23:25;46.93;;;20.37;;
46729;SDS011;32476;50.002;11.854;2022-08-25T01:26:01;31.03;;;19.37;;
46729;SDS011;32476;50.002;11.854;2022-08-25T01:28:54;28.57;;;19.53;;
46729;SDS011;32476;50.002;11.854;2022-08-25T01:31:40;32.83;;;21.50;;
46729;SDS011;32476;50.002;11.854;2022-08-25T01:34:08;33.30;;;21.20;;
46729;SDS011;32476;50.002;11.854;2022-08-25T01:36:36;23.90;;;18.00;;
46729;SDS011;32476;50.002;11.854;2022-08-25T01:39:04;40.10;;;18.80;;
46729;SDS011;32476;50.002;11.854;2022-08-25T01:44:15;25.47;;;17.83;;
46729;SDS011;32476;50.002;11.854;2022-08-25T01:46:43;40.10;;;19.13;;
46729;SDS011;32476;50.002;11.854;2022-08-25T01:49:09;32.80;;;18.73;;
46729;SDS011;32476;50.002;11.854;2022-08-25T01:51:41;32.13;;;20.27;;
46729;SDS011;32476;50.002;11.854;2022-08-25T01:54:14;34.03;;;21.07;;
46729;SDS011;32476;50.002;11.854;2022-08-25T01:56:40;36.00;;;20.53;;
46729;SDS011;32476;50.002;11.854;2022-08-25T01:59:05;29.53;;;19.80;;
46729;SDS011;32476;50.002;11.854;2022-08-25T02:01:33;38.30;;;19.27;;
46729;SDS011;32476;50.002;11.854;2022-08-25T02:03:59;30.83;;;19.87;;
46729;SDS011;32476;50.002;11.854;2022-08-25T02:06:26;30.40;;;19.87;;
46729;SDS011;32476;50.002;11.854;2022-08-25T02:08:59;28.20;;;18.73;;
46729;SDS011;32476;50.002;11.854;2022-08-25T02:11:36;23.60;;;17.37;;
46729;SDS011;32476;50.002;11.854;2022-08-25T02:14:08;26.73;;;18.07;;
46729;SDS011;32476;50.002;11.854;2022-08-25T02:16:36;26.60;;;18.37;;
46729;SDS011;32476;50.002;11.854;2022-08-25T02:19:05;29.90;;;19.23;;
46729;SDS011;32476;50.002;11.854;2022-08-25T02:21:37;36.53;;;22.43;;
46729;SDS011;32476;50.002;11.854;2022-08-25T02:24:03;34.17;;;22.03;;
46729;SDS011;32476;50.002;11.854;2022-08-25T02:26:30;36.27;;;22.60;;
46729;SDS011;32476;50.002;11.854;2022-08-25T02:28:58;41.67;;;22.83;;
46729;SDS011;32476;50.002;11.854;2022-08-25T02:31:25;39.03;;;22.10;;
46729;SDS011;32476;50.002;11.854;2022-08-25T02:33:51;53.80;;;22.30;;
46729;SDS011;32476;50.002;11.854;2022-08-25T02:36:19;29.17;;;19.10;;
46729;SDS011;32476;50.002;11.854;2022-08-25T02:38:45;32.50;;;19.77;;
46729;SDS011;32476;50.002;11.854;2022-08-25T02:41:14;26.17;;;18.60;;
46729;SDS011;32476;50.002;11.854;2022-08-25T02:43:47;22.70;;;16.03;;
46729;SDS011;32476;50.002;11.854;2022-08-25T02:46:15;19.97;;;15.37;;
46729;SDS011;32476;50.002;11.854;2022-08-25T02:48:44;20.90;;;17.00;;
46729;SDS011;32476;50.002;11.854;2022-08-25T02:51:13;25.80;;;18.13;;
46729;SDS011;32476;50.002;11.854;2022-08-25T02:53:39;34.47;;;20.17;;
46729;SDS011;32476;50.002;11.854;2022-08-25T02:56:07;30.83;;;20.23;;
46729;SDS011;32476;50.002;11.854;2022-08-25T02:58:37;33.27;;;20.37;;
46729;SDS011;32476;50.002;11.854;2022-08-25T03:01:04;37.00;;;22.70;;
46729;SDS011;32476;50.002;11.854;2022-08-25T03:03:31;32.43;;;20.50;;
46729;SDS011;32476;50.002;11.854;2022-08-25T03:05:59;34.37;;;20.87;;
46729;SDS011;32476;50.002;11.854;2022-08-25T03:08:26;25.63;;;18.23;;
46729;SDS011;32476;50.002;11.854;2022-08-25T03:10:52;30.97;;;20.20;;
46729;SDS011;32476;50.002;11.854;2022-08-25T03:13:19;32.37;;;20.20;;
46729;SDS011;32476;50.002;11.854;2022-08-25T03:15:45;30.53;;;20.57;;
46729;SDS011;32476;50.002;11.854;2022-08-25T03:18:11;31.17;;;21.27;;
46729;SDS011;32476;50.002;11.854;2022-08-25T03:20:38;33.83;;;22.00;;
46729;SDS011;32476;50.002;11.854;2022-08-25T03:23:06;31.73;;;22.00;;
46729;SDS011;32476;50.002;11.854;2022-08-25T03:25:32;31.47;;;21.97;;
46729;SDS011;32476;50.002;11.854;2022-08-25T03:28:19;44.07;;;22.70;;
46729;SDS011;32476;50.002;11.854;2022-08-25T03:30:45;40.63;;;25.47;;
46729;SDS011;32476;50.002;11.854;2022-08-25T03:33:11;43.03;;;25.23;;
46729;SDS011;32476;50.002;11.854;2022-08-25T03:35:38;38.57;;;24.33;;
46729;SDS011;32476;50.002;11.854;2022-08-25T03:38:05;36.90;;;25.57;;
46729;SDS011;32476;50.002;11.854;2022-08-25T03:40:31;39.93;;;25.20;;
46729;SDS011;32476;50.002;11.854;2022-08-25T03:42:59;41.50;;;27.03;;
46729;SDS011;32476;50.002;11.854;2022-08-25T03:45:25;46.07;;;27.37;;
46729;SDS011;32476;50.002;11.854;2022-08-25T03:47:51;38.43;;;25.73;;
46729;SDS011;32476;50.002;11.854;2022-08-25T03:50:20;38.47;;;24.30;;
46729;SDS011;32476;50.002;11.854;2022-08-25T03:52:54;47.17;;;26.03;;
46729;SDS011;32476;50.002;11.854;2022-08-25T03:55:23;44.53;;;29.20;;
46729;SDS011;32476;50.002;11.854;2022-08-25T03:57:50;57.30;;;28.57;;
46729;SDS011;32476;50.002;11.854;2022-08-25T04:00:18;40.20;;;27.83;;
46729;SDS011;32476;50.002;11.854;2022-08-25T04:02:48;45.70;;;27.67;;
46729;SDS011;32476;50.002;11.854;2022-08-25T04:05:14;38.07;;;26.40;;
46729;SDS011;32476;50.002;11.854;2022-08-25T04:07:40;45.33;;;28.07;;
46729;SDS011;32476;50.002;11.854;2022-08-25T04:10:08;42.80;;;26.77;;
46729;SDS011;32476;50.002;11.854;2022-08-25T04:12:35;39.13;;;26.83;;
46729;SDS011;32476;50.002;11.854;2022-08-25T04:15:03;40.47;;;24.23;;
46729;SDS011;32476;50.002;11.854;2022-08-25T04:17:31;39.77;;;27.57;;
46729;SDS011;32476;50.002;11.854;2022-08-25T04:19:57;37.27;;;25.07;;
46729;SDS011;32476;50.002;11.854;2022-08-25T04:22:25;44.73;;;25.97;;
46729;SDS011;32476;50.002;11.854;2022-08-25T04:24:52;48.23;;;24.83;;
46729;SDS011;32476;50.002;11.854;2022-08-25T04:27:18;43.80;;;27.67;;
46729;SDS011;32476;50.002;11.854;2022-08-25T04:29:44;56.80;;;35.27;;
46729;SDS011;32476;50.002;11.854;2022-08-25T04:32:12;47.90;;;34.43;;
46729;SDS011;32476;50.002;11.854;2022-08-25T04:34:38;46.37;;;30.67;;
46729;SDS011;32476;50.002;11.854;2022-08-25T04:37:04;47.67;;;29.37;;
46729;SDS011;32476;50.002;11.854;2022-08-25T04:39:33;44.73;;;27.60;;
46729;SDS011;32476;50.002;11.854;2022-08-25T04:42:00;32.43;;;22.80;;
46729;SDS011;32476;50.002;11.854;2022-08-25T04:44:27;32.13;;;23.03;;
46729;SDS011;32476;50.002;11.854;2022-08-25T04:46:56;40.17;;;26.17;;
46729;SDS011;32476;50.002;11.854;2022-08-25T04:49:23;43.40;;;26.90;;
46729;SDS011;32476;50.002;11.854;2022-08-25T04:51:48;41.23;;;24.13;;
46729;SDS011;32476;50.002;11.854;2022-08-25T04:54:16;37.50;;;24.13;;
46729;SDS011;32476;50.002;11.854;2022-08-25T04:56:46;33.60;;;23.63;;
46729;SDS011;32476;50.002;11.854;2022-08-25T04:59:14;32.03;;;21.20;;
46729;SDS011;32476;50.002;11.854;2022-08-25T05:01:43;30.57;;;20.07;;
46729;SDS011;32476;50.002;11.854;2022-08-25T05:04:11;28.90;;;21.63;;
46729;SDS011;32476;50.002;11.854;2022-08-25T05:06:40;36.27;;;24.27;;
46729;SDS011;32476;50.002;11.854;2022-08-25T05:09:09;33.00;;;23.50;;
46729;SDS011;32476;50.002;11.854;2022-08-25T05:11:35;43.00;;;25.60;;
46729;SDS011;32476;50.002;11.854;2022-08-25T05:14:01;28.40;;;21.13;;
46729;SDS011;32476;50.002;11.854;2022-08-25T05:16:30;40.40;;;25.03;;
46729;SDS011;32476;50.002;11.854;2022-08-25T05:18:56;42.20;;;26.60;;
46729;SDS011;32476;50.002;11.854;2022-08-25T05:21:23;41.47;;;26.03;;
46729;SDS011;32476;50.002;11.854;2022-08-25T05:23:54;38.20;;;27.90;;
46729;SDS011;32476;50.002;11.854;2022-08-25T05:26:26;48.47;;;28.17;;
46729;SDS011;32476;50.002;11.854;2022-08-25T05:28:56;40.03;;;27.40;;
46729;SDS011;32476;50.002;11.854;2022-08-25T05:31:24;47.80;;;29.70;;
46729;SDS011;32476;50.002;11.854;2022-08-25T05:33:52;43.37;;;27.13;;
46729;SDS011;32476;50.002;11.854;2022-08-25T05:36:21;38.27;;;26.37;;
46729;SDS011;32476;50.002;11.854;2022-08-25T05:38:50;44.47;;;28.20;;
46729;SDS011;32476;50.002;11.854;2022-08-25T05:41:17;42.57;;;25.67;;
46729;SDS011;32476;50.002;11.854;2022-08-25T05:43:50;41.87;;;27.00;;
46729;SDS011;32476;50.002;11.854;2022-08-25T05:46:17;40.20;;;26.83;;
46729;SDS011;32476;50.002;11.854;2022-08-25T05:48:44;39.03;;;27.37;;
46729;SDS011;32476;50.002;11.854;2022-08-25T05:51:12;44.27;;;28.30;;
46729;SDS011;32476;50.002;11.854;2022-08-25T05:53:41;41.13;;;27.47;;
46729;SDS011;32476;50.002;11.854;2022-08-25T05:56:10;44.07;;;26.67;;
46729;SDS011;32476;50.002;11.854;2022-08-25T05:58:40;44.47;;;28.73;;
46729;SDS011;32476;50.002;11.854;2022-08-25T06:01:07;100.40;;;28.87;;
46729;SDS011;32476;50.002;11.854;2022-08-25T06:03:54;48.43;;;28.57;;
46729;SDS011;32476;50.002;11.854;2022-08-25T06:06:20;45.27;;;28.07;;
46729;SDS011;32476;50.002;11.854;2022-08-25T06:08:48;40.47;;;26.80;;
46729;SDS011;32476;50.002;11.854;2022-08-25T06:11:17;40.47;;;27.83;;
46729;SDS011;32476;50.002;11.854;2022-08-25T06:13:43;49.93;;;27.57;;
46729;SDS011;32476;50.002;11.854;2022-08-25T06:16:09;40.43;;;28.23;;
46729;SDS011;32476;50.002;11.854;2022-08-25T06:18:37;39.57;;;28.93;;
46729;SDS011;32476;50.002;11.854;2022-08-25T06:21:07;40.83;;;26.40;;
46729;SDS011;32476;50.002;11.854;2022-08-25T06:23:36;36.53;;;26.30;;
46729;SDS011;32476;50.002;11.854;2022-08-25T06:26:03;41.87;;;27.17;;
46729;SDS011;32476;50.002;11.854;2022-08-25T06:28:29;36.03;;;27.17;;
46729;SDS011;32476;50.002;11.854;2022-08-25T06:30:58;36.17;;;26.55;;
46729;SDS011;32476;50.002;11.854;2022-08-25T06:33:25;34.78;;;25.15;;
46729;SDS011;32476;50.002;11.854;2022-08-25T06:35:53;36.60;;;26.08;;
46729;SDS011;32476;50.002;11.854;2022-08-25T06:38:24;32.33;;;25.02;;
46729;SDS011;32476;50.002;11.854;2022-08-25T06:40:51;43.13;;;25.83;;
46729;SDS011;32476;50.002;11.854;2022-08-25T06:43:18;36.65;;;23.35;;
46729;SDS011;32476;50.002;11.854;2022-08-25T06:45:47;35.63;;;24.88;;
46729;SDS011;32476;50.002;11.854;2022-08-25T06:48:13;36.70;;;24.33;;
46729;SDS011;32476;50.002;11.854;2022-08-25T06:50:40;38.92;;;23.35;;
46729;SDS011;32476;50.002;11.854;2022-08-25T06:53:08;38.70;;;23.85;;
46729;SDS011;32476;50.002;11.854;2022-08-25T06:55:34;34.03;;;21.98;;
46729;SDS011;32476;50.002;11.854;2022-08-25T06:58:01;30.55;;;20.67;;
46729;SDS011;32476;50.002;11.854;2022-08-25T07:00:29;32.25;;;19.88;;
46729;SDS011;32476;50.002;11.854;2022-08-25T07:02:56;39.65;;;19.77;;
46729;SDS011;32476;50.002;11.854;2022-08-25T07:05:22;29.63;;;20.65;;
46729;SDS011;32476;50.002;11.854;2022-08-25T07:07:50;36.92;;;20.45;;
46729;SDS011;32476;50.002;11.854;2022-08-25T07:10:16;31.58;;;19.75;;
46729;SDS011;32476;50.002;11.854;2022-08-25T07:12:42;29.10;;;20.92;;
46729;SDS011;32476;50.002;11.854;2022-08-25T07:15:09;34.55;;;19.92;;
46729;SDS011;32476;50.002;11.854;2022-08-25T07:17:35;29.13;;;19.25;;
46729;SDS011;32476;50.002;11.854;2022-08-25T07:20:02;33.92;;;20.42;;
46729;SDS011;32476;50.002;11.854;2022-08-25T07:22:29;27.35;;;18.67;;
46729;SDS011;32476;50.002;11.854;2022-08-25T07:24:57;41.95;;;17.80;;
46729;SDS011;32476;50.002;11.854;2022-08-25T07:27:23;30.30;;;17.70;;
46729;SDS011;32476;50.002;11.854;2022-08-25T07:29:52;22.48;;;15.50;;
46729;SDS011;32476;50.002;11.854;2022-08-25T07:32:18;23.98;;;14.40;;
46729;SDS011;32476;50.002;11.854;2022-08-25T07:34:44;31.63;;;14.35;;
46729;SDS011;32476;50.002;11.854;2022-08-25T07:37:30;22.42;;;13.07;;
46729;SDS011;32476;50.002;11.854;2022-08-25T07:39:56;17.13;;;12.32;;
46729;SDS011;32476;50.002;11.854;2022-08-25T07:42:24;15.00;;;11.85;;
46729;SDS011;32476;50.002;11.854;2022-08-25T07:44:53;16.77;;;12.48;;
46729;SDS011;32476;50.002;11.854;2022-08-25T07:47:19;20.45;;;12.20;;
46729;SDS011;32476;50.002;11.854;2022-08-25T07:49:45;18.77;;;12.38;;
46729;SDS011;32476;50.002;11.854;2022-08-25T07:52:13;19.95;;;11.82;;
46729;SDS011;32476;50.002;11.854;2022-08-25T07:54:39;18.30;;;12.55;;
46729;SDS011;32476;50.002;11.854;2022-08-25T07:57:05;19.00;;;11.73;;
46729;SDS011;32476;50.002;11.854;2022-08-25T07:59:38;23.98;;;12.80;;
46729;SDS011;32476;50.002;11.854;2022-08-25T08:02:10;17.75;;;13.80;;
46729;SDS011;32476;50.002;11.854;2022-08-25T08:04:38;26.60;;;15.48;;
46729;SDS011;32476;50.002;11.854;2022-08-25T08:07:06;17.30;;;12.93;;
46729;SDS011;32476;50.002;11.854;2022-08-25T08:09:32;23.90;;;13.65;;
46729;SDS011;32476;50.002;11.854;2022-08-25T08:12:00;22.15;;;12.63;;
46729;SDS011;32476;50.002;11.854;2022-08-25T08:14:26;19.00;;;12.95;;
46729;SDS011;32476;50.002;11.854;2022-08-25T08:16:52;15.38;;;12.20;;
46729;SDS011;32476;50.002;11.854;2022-08-25T08:19:19;14.98;;;10.85;;
46729;SDS011;32476;50.002;11.854;2022-08-25T08:21:46;22.48;;;11.13;;
46729;SDS011;32476;50.002;11.854;2022-08-25T08:24:13;19.75;;;11.02;;
46729;SDS011;32476;50.002;11.854;2022-08-25T08:26:41;14.18;;;10.50;;
46729;SDS011;32476;50.002;11.854;2022-08-25T08:29:07;15.68;;;10.52;;
46729;SDS011;32476;50.002;11.854;2022-08-25T08:31:33;15.45;;;11.93;;
46729;SDS011;32476;50.002;11.854;2022-08-25T08:34:00;13.88;;;10.15;;
46729;SDS011;32476;50.002;11.854;2022-08-25T08:36:26;19.55;;;10.95;;
46729;SDS011;32476;50.002;11.854;2022-08-25T08:38:52;26.60;;;12.10;;
46729;SDS011;32476;50.002;11.854;2022-08-25T08:41:26;18.05;;;11.45;;
46729;SDS011;32476;50.002;11.854;2022-08-25T08:52:43;15.88;;;12.07;;
46729;SDS011;32476;50.002;11.854;2022-08-25T08:55:25;16.95;;;11.57;;
46729;SDS011;32476;50.002;11.854;2022-08-25T08:58:02;23.42;;;11.60;;
46729;SDS011;32476;50.002;11.854;2022-08-25T09:00:36;19.88;;;11.40;;
46729;SDS011;32476;50.002;11.854;2022-08-25T09:03:15;15.93;;;9.85;;
46729;SDS011;32476;50.002;11.854;2022-08-25T09:05:50;11.77;;;10.13;;
46729;SDS011;32476;50.002;11.854;2022-08-25T09:08:21;18.02;;;10.85;;
46729;SDS011;32476;50.002;11.854;2022-08-25T09:13:32;16.33;;;10.40;;
46729;SDS011;32476;50.002;11.854;2022-08-25T09:16:42;20.38;;;10.85;;
46729;SDS011;32476;50.002;11.854;2022-08-25T09:28:53;16.17;;;10.90;;
46729;SDS011;32476;50.002;11.854;2022-08-25T09:31:48;17.23;;;9.95;;
46729;SDS011;32476;50.002;11.854;2022-08-25T09:34:19;13.40;;;9.93;;
46729;SDS011;32476;50.002;11.854;2022-08-25T09:36:50;13.02;;;9.55;;
46729;SDS011;32476;50.002;11.854;2022-08-25T09:39:17;13.45;;;10.25;;
46729;SDS011;32476;50.002;11.854;2022-08-25T09:41:52;15.45;;;10.23;;
46729;SDS011;32476;50.002;11.854;2022-08-25T09:44:24;26.05;;;10.73;;
46729;SDS011;32476;50.002;11.854;2022-08-25T09:47:02;14.90;;;9.68;;
46729;SDS011;32476;50.002;11.854;2022-08-25T09:49:34;12.48;;;10.00;;
46729;SDS011;32476;50.002;11.854;2022-08-25T09:55:40;18.30;;;10.57;;
46729;SDS011;32476;50.002;11.854;2022-08-25T09:57:58;29.00;;;11.27;;
46729;SDS011;32476;50.002;11.854;2022-08-25T10:03:15;18.73;;;9.75;;
46729;SDS011;32476;50.002;11.854;2022-08-25T10:08:23;15.48;;;9.98;;
46729;SDS011;32476;50.002;11.854;2022-08-25T10:11:04;16.08;;;9.18;;
46729;SDS011;32476;50.002;11.854;2022-08-25T10:13:38;12.23;;;9.75;;
46729;SDS011;32476;50.002;11.854;2022-08-25T10:16:20;15.00;;;10.18;;
46729;SDS011;32476;50.002;11.854;2022-08-25T10:19:07;14.00;;;10.52;;
46729;SDS011;32476;50.002;11.854;2022-08-25T10:21:41;16.83;;;10.05;;
46729;SDS011;32476;50.002;11.854;2022-08-25T10:24:09;13.68;;;10.57;;
46729;SDS011;32476;50.002;11.854;2022-08-25T10:26:51;16.50;;;10.05;;
46729;SDS011;32476;50.002;11.854;2022-08-25T10:32:36;13.50;;;9.27;;
46729;SDS011;32476;50.002;11.854;2022-08-25T10:36:06;14.13;;;8.73;;
46729;SDS011;32476;50.002;11.854;2022-08-25T10:44:26;15.68;;;8.88;;
46729;SDS011;32476;50.002;11.854;2022-08-25T10:47:41;20.13;;;8.70;;
46729;SDS011;32476;50.002;11.854;2022-08-25T10:56:01;10.57;;;7.82;;
46729;SDS011;32476;50.002;11.854;2022-08-25T10:58:58;12.23;;;7.50;;
46729;SDS011;32476;50.002;11.854;2022-08-25T11:06:59;19.02;;;8.27;;
46729;SDS011;32476;50.002;11.854;2022-08-25T11:09:33;17.85;;;9.10;;
46729;SDS011;32476;50.002;11.854;2022-08-25T11:12:17;27.60;;;9.63;;
46729;SDS011;32476;50.002;11.854;2022-08-25T11:14:55;12.02;;;9.05;;
46729;SDS011;32476;50.002;11.854;2022-08-25T11:17:45;9.32;;;8.05;;
46729;SDS011;32476;50.002;11.854;2022-08-25T11:23:21;9.93;;;8.68;;
46729;SDS011;32476;50.002;11.854;2022-08-25T11:26:00;16.35;;;8.18;;
46729;SDS011;32476;50.002;11.854;2022-08-25T11:31:38;16.60;;;8.20;;
46729;SDS011;32476;50.002;11.854;2022-08-25T11:34:10;13.48;;;8.18;;
46729;SDS011;32476;50.002;11.854;2022-08-25T11:39:36;15.57;;;8.73;;
46729;SDS011;32476;50.002;11.854;2022-08-25T11:42:44;24.15;;;8.63;;
46729;SDS011;32476;50.002;11.854;2022-08-25T11:45:40;14.07;;;7.93;;
46729;SDS011;32476;50.002;11.854;2022-08-25T11:51:46;16.95;;;8.23;;
46729;SDS011;32476;50.002;11.854;2022-08-25T11:54:15;12.88;;;8.10;;
46729;SDS011;32476;50.002;11.854;2022-08-25T12:02:44;13.27;;;8.35;;
46729;SDS011;32476;50.002;11.854;2022-08-25T12:12:58;16.20;;;9.55;;
46729;SDS011;32476;50.002;11.854;2022-08-25T12:18:09;16.08;;;9.43;;
46729;SDS011;32476;50.002;11.854;2022-08-25T12:23:32;27.45;;;10.45;;
46729;SDS011;32476;50.002;11.854;2022-08-25T12:29:25;20.77;;;9.45;;
46729;SDS011;32476;50.002;11.854;2022-08-25T12:38:04;29.98;;;9.35;;
46729;SDS011;32476;50.002;11.854;2022-08-25T12:43:12;28.38;;;9.63;;
46729;SDS011;32476;50.002;11.854;2022-08-25T12:48:55;23.45;;;9.88;;
46729;SDS011;32476;50.002;11.854;2022-08-25T12:52:00;20.05;;;8.80;;
46729;SDS011;32476;50.002;11.854;2022-08-25T12:59:49;37.33;;;9.05;;
46729;SDS011;32476;50.002;11.854;2022-08-25T13:08:49;25.08;;;9.02;;
46729;SDS011;32476;50.002;11.854;2022-08-25T13:12:03;26.90;;;8.95;;
46729;SDS011;32476;50.002;11.854;2022-08-25T13:15:05;27.17;;;8.95;;
46729;SDS011;32476;50.002;11.854;2022-08-25T13:17:39;22.60;;;8.25;;
46729;SDS011;32476;50.002;11.854;2022-08-25T13:20:13;24.02;;;8.00;;
46729;SDS011;32476;50.002;11.854;2022-08-25T13:22:48;25.70;;;8.50;;
46729;SDS011;32476;50.002;11.854;2022-08-25T13:25:20;26.58;;;8.27;;
46729;SDS011;32476;50.002;11.854;2022-08-25T13:27:58;20.92;;;8.07;;
46729;SDS011;32476;50.002;11.854;2022-08-25T13:30:35;23.75;;;8.60;;
46729;SDS011;32476;50.002;11.854;2022-08-25T13:33:19;25.05;;;9.02;;
46729;SDS011;32476;50.002;11.854;2022-08-25T13:35:50;30.15;;;8.32;;
46729;SDS011;32476;50.002;11.854;2022-08-25T13:38:40;21.30;;;8.25;;
46729;SDS011;32476;50.002;11.854;2022-08-25T13:41:15;16.25;;;7.05;;
46729;SDS011;32476;50.002;11.854;2022-08-25T13:43:43;40.47;;;8.57;;
46729;SDS011;32476;50.002;11.854;2022-08-25T13:46:11;21.80;;;7.82;;
46729;SDS011;32476;50.002;11.854;2022-08-25T13:48:40;18.17;;;7.15;;
46729;SDS011;32476;50.002;11.854;2022-08-25T13:51:23;20.20;;;8.38;;
46729;SDS011;32476;50.002;11.854;2022-08-25T13:56:26;31.60;;;7.75;;
46729;SDS011;32476;50.002;11.854;2022-08-25T13:59:00;27.02;;;7.60;;
46729;SDS011;32476;50.002;11.854;2022-08-25T14:01:33;26.67;;;7.93;;
46729;SDS011;32476;50.002;11.854;2022-08-25T14:04:27;21.33;;;7.85;;
46729;SDS011;32476;50.002;11.854;2022-08-25T14:07:13;28.50;;;7.93;;
46729;SDS011;32476;50.002;11.854;2022-08-25T14:09:53;28.63;;;7.32;;
46729;SDS011;32476;50.002;11.854;2022-08-25T14:12:35;22.45;;;6.60;;
46729;SDS011;32476;50.002;11.854;2022-08-25T14:17:41;24.23;;;7.05;;
46729;SDS011;32476;50.002;11.854;2022-08-25T14:20:27;30.88;;;8.20;;
46729;SDS011;32476;50.002;11.854;2022-08-25T14:23:03;24.85;;;7.43;;
46729;SDS011;32476;50.002;11.854;2022-08-25T14:25:32;18.73;;;7.10;;
46729;SDS011;32476;50.002;11.854;2022-08-25T14:28:00;43.75;;;8.43;;
46729;SDS011;32476;50.002;11.854;2022-08-25T14:30:30;22.85;;;7.38;;
46729;SDS011;32476;50.002;11.854;2022-08-25T14:33:01;20.27;;;7.55;;
46729;SDS011;32476;50.002;11.854;2022-08-25T14:35:28;21.00;;;7.38;;
46729;SDS011;32476;50.002;11.854;2022-08-25T14:37:54;21.55;;;7.15;;
46729;SDS011;32476;50.002;11.854;2022-08-25T14:40:22;24.30;;;7.45;;
46729;SDS011;32476;50.002;11.854;2022-08-25T14:42:48;25.33;;;8.02;;
46729;SDS011;32476;50.002;11.854;2022-08-25T14:45:14;27.77;;;7.28;;
46729;SDS011;32476;50.002;11.854;2022-08-25T14:47:43;29.27;;;7.28;;
46729;SDS011;32476;50.002;11.854;2022-08-25T14:50:11;27.02;;;6.93;;
46729;SDS011;32476;50.002;11.854;2022-08-25T14:52:39;19.60;;;6.90;;
46729;SDS011;32476;50.002;11.854;2022-08-25T14:55:08;22.38;;;7.00;;
46729;SDS011;32476;50.002;11.854;2022-08-25T14:57:35;18.08;;;6.28;;
46729;SDS011;32476;50.002;11.854;2022-08-25T15:00:02;32.90;;;8.07;;
46729;SDS011;32476;50.002;11.854;2022-08-25T15:02:31;16.73;;;7.00;;
46729;SDS011;32476;50.002;11.854;2022-08-25T15:05:02;25.42;;;7.03;;
46729;SDS011;32476;50.002;11.854;2022-08-25T15:07:32;26.08;;;6.78;;
46729;SDS011;32476;50.002;11.854;2022-08-25T15:10:18;17.92;;;6.57;;
46729;SDS011;32476;50.002;11.854;2022-08-25T15:12:46;28.63;;;7.72;;
46729;SDS011;32476;50.002;11.854;2022-08-25T15:15:12;23.95;;;6.68;;
46729;SDS011;32476;50.002;11.854;2022-08-25T15:17:38;22.33;;;7.65;;
46729;SDS011;32476;50.002;11.854;2022-08-25T15:20:07;32.53;;;7.70;;
46729;SDS011;32476;50.002;11.854;2022-08-25T15:22:34;23.50;;;6.80;;
46729;SDS011;32476;50.002;11.854;2022-08-25T15:25:00;25.65;;;7.25;;
46729;SDS011;32476;50.002;11.854;2022-08-25T15:27:27;21.15;;;7.80;;
46729;SDS011;32476;50.002;11.854;2022-08-25T15:29:53;20.15;;;7.38;;
46729;SDS011;32476;50.002;11.854;2022-08-25T15:32:19;21.60;;;6.72;;
46729;SDS011;32476;50.002;11.854;2022-08-25T15:34:48;26.90;;;7.28;;
46729;SDS011;32476;50.002;11.854;2022-08-25T15:37:14;32.28;;;8.15;;
46729;SDS011;32476;50.002;11.854;2022-08-25T15:39:42;28.83;;;7.45;;
46729;SDS011;32476;50.002;11.854;2022-08-25T15:42:11;26.65;;;6.45;;
46729;SDS011;32476;50.002;11.854;2022-08-25T15:44:38;24.27;;;6.57;;
46729;SDS011;32476;50.002;11.854;2022-08-25T15:47:04;22.50;;;6.15;;
46729;SDS011;32476;50.002;11.854;2022-08-25T15:49:32;28.73;;;6.93;;
46729;SDS011;32476;50.002;11.854;2022-08-25T15:51:59;29.83;;;6.65;;
46729;SDS011;32476;50.002;11.854;2022-08-25T15:54:25;31.33;;;6.88;;
46729;SDS011;32476;50.002;11.854;2022-08-25T15:56:54;23.98;;;6.55;;
46729;SDS011;32476;50.002;11.854;2022-08-25T15:59:21;26.63;;;6.82;;
46729;SDS011;32476;50.002;11.854;2022-08-25T16:01:48;33.65;;;7.63;;
46729;SDS011;32476;50.002;11.854;2022-08-25T16:04:22;28.95;;;10.35;;
46729;SDS011;32476;50.002;11.854;2022-08-25T16:06:50;31.55;;;7.20;;
46729;SDS011;32476;50.002;11.854;2022-08-25T16:09:16;19.38;;;6.78;;
46729;SDS011;32476;50.002;11.854;2022-08-25T16:11:44;24.10;;;7.05;;
46729;SDS011;32476;50.002;11.854;2022-08-25T16:14:10;20.55;;;6.93;;
46729;SDS011;32476;50.002;11.854;2022-08-25T16:16:36;21.55;;;6.20;;
46729;SDS011;32476;50.002;11.854;2022-08-25T16:19:04;21.77;;;6.38;;
46729;SDS011;32476;50.002;11.854;2022-08-25T16:21:31;33.58;;;6.70;;
46729;SDS011;32476;50.002;11.854;2022-08-25T16:24:02;37.33;;;7.65;;
46729;SDS011;32476;50.002;11.854;2022-08-25T16:26:31;21.48;;;6.88;;
46729;SDS011;32476;50.002;11.854;2022-08-25T16:29:00;21.60;;;6.50;;
46729;SDS011;32476;50.002;11.854;2022-08-25T16:31:28;23.83;;;6.97;;
46729;SDS011;32476;50.002;11.854;2022-08-25T16:33:56;26.85;;;7.68;;